sensor_id;sensor_type;location;lat;lon;timestamp;P1;durP1;ratioP1;P2;durP2;ratioP2
12567;SDS011;6349;50.904;6.136;2023-08-01T00:01:35;0.40;;;0.25;;
12567;SDS011;6349;50.904;6.136;2023-08-01T00:03:36;0.30;;;0.20;;
12567;SDS011;6349;50.904;6.136;2023-08-01T00:05:37;1.58;;;0.35;;
12567;SDS011;6349;50.904;6.136;2023-08-01T00:07:38;0.60;;;0.32;;
12567;SDS011;6349;50.904;6.136;2023-08-01T00:09:39;0.30;;;0.30;;
12567;SDS011;6349;50.904;6.136;2023-08-01T00:11:40;0.50;;;0.50;;
12567;SDS011;6349;50.904;6.136;2023-08-01T00:13:40;0.17;;;0.17;;
12567;SDS011;6349;50.904;6.136;2023-08-01T00:15:41;0.20;;;0.20;;
12567;SDS011;6349;50.904;6.136;2023-08-01T00:17:41;0.38;;;0.30;;
12567;SDS011;6349;50.904;6.136;2023-08-01T00:19:42;0.50;;;0.38;;
12567;SDS011;6349;50.904;6.136;2023-08-01T00:21:43;0.95;;;0.30;;
12567;SDS011;6349;50.904;6.136;2023-08-01T00:23:43;0.98;;;0.40;;
12567;SDS011;6349;50.904;6.136;2023-08-01T00:25:44;2.13;;;0.47;;
12567;SDS011;6349;50.904;6.136;2023-08-01T00:27:45;1.58;;;0.50;;
12567;SDS011;6349;50.904;6.136;2023-08-01T00:29:46;1.00;;;0.45;;
12567;SDS011;6349;50.904;6.136;2023-08-01T00:31:47;1.20;;;0.40;;
12567;SDS011;6349;50.904;6.136;2023-08-01T00:33:47;0.65;;;0.45;;
12567;SDS011;6349;50.904;6.136;2023-08-01T00:35:53;0.30;;;0.30;;
12567;SDS011;6349;50.904;6.136;2023-08-01T00:37:54;0.93;;;0.30;;
12567;SDS011;6349;50.904;6.136;2023-08-01T00:39:54;0.57;;;0.50;;
12567;SDS011;6349;50.904;6.136;2023-08-01T00:41:55;1.75;;;0.40;;
12567;SDS011;6349;50.904;6.136;2023-08-01T00:43:56;0.40;;;0.30;;
12567;SDS011;6349;50.904;6.136;2023-08-01T00:45:58;0.50;;;0.50;;
12567;SDS011;6349;50.904;6.136;2023-08-01T00:48:00;0.30;;;0.30;;
12567;SDS011;6349;50.904;6.136;2023-08-01T00:50:01;1.23;;;0.40;;
12567;SDS011;6349;50.904;6.136;2023-08-01T00:52:02;0.28;;;0.28;;
12567;SDS011;6349;50.904;6.136;2023-08-01T00:54:04;0.68;;;0.50;;
12567;SDS011;6349;50.904;6.136;2023-08-01T00:56:05;0.60;;;0.47;;
12567;SDS011;6349;50.904;6.136;2023-08-01T00:58:05;0.40;;;0.40;;
12567;SDS011;6349;50.904;6.136;2023-08-01T01:00:06;1.85;;;0.32;;
12567;SDS011;6349;50.904;6.136;2023-08-01T01:02:07;0.45;;;0.40;;
12567;SDS011;6349;50.904;6.136;2023-08-01T01:04:08;1.30;;;0.40;;
12567;SDS011;6349;50.904;6.136;2023-08-01T01:06:13;0.40;;;0.40;;
12567;SDS011;6349;50.904;6.136;2023-08-01T01:08:24;0.57;;;0.50;;
12567;SDS011;6349;50.904;6.136;2023-08-01T01:10:24;0.47;;;0.47;;
12567;SDS011;6349;50.904;6.136;2023-08-01T01:12:25;0.65;;;0.50;;
12567;SDS011;6349;50.904;6.136;2023-08-01T01:14:26;0.85;;;0.60;;
12567;SDS011;6349;50.904;6.136;2023-08-01T01:16:27;1.10;;;0.63;;
12567;SDS011;6349;50.904;6.136;2023-08-01T01:18:28;1.92;;;0.60;;
12567;SDS011;6349;50.904;6.136;2023-08-01T01:20:33;1.42;;;0.50;;
12567;SDS011;6349;50.904;6.136;2023-08-01T01:22:37;1.08;;;0.68;;
12567;SDS011;6349;50.904;6.136;2023-08-01T01:24:39;1.75;;;0.52;;
12567;SDS011;6349;50.904;6.136;2023-08-01T01:26:41;2.10;;;0.63;;
12567;SDS011;6349;50.904;6.136;2023-08-01T01:28:43;0.70;;;0.70;;
12567;SDS011;6349;50.904;6.136;2023-08-01T01:30:44;0.50;;;0.50;;
12567;SDS011;6349;50.904;6.136;2023-08-01T01:32:45;0.63;;;0.63;;
12567;SDS011;6349;50.904;6.136;2023-08-01T01:34:46;1.98;;;0.70;;
12567;SDS011;6349;50.904;6.136;2023-08-01T01:36:47;0.60;;;0.60;;
12567;SDS011;6349;50.904;6.136;2023-08-01T01:38:48;1.38;;;0.68;;
12567;SDS011;6349;50.904;6.136;2023-08-01T01:40:48;0.60;;;0.60;;
12567;SDS011;6349;50.904;6.136;2023-08-01T01:42:49;0.55;;;0.55;;
12567;SDS011;6349;50.904;6.136;2023-08-01T01:44:49;1.05;;;0.45;;
12567;SDS011;6349;50.904;6.136;2023-08-01T01:46:50;0.35;;;0.35;;
12567;SDS011;6349;50.904;6.136;2023-08-01T01:48:51;1.02;;;0.60;;
12567;SDS011;6349;50.904;6.136;2023-08-01T01:50:51;0.50;;;0.50;;
12567;SDS011;6349;50.904;6.136;2023-08-01T01:52:52;0.60;;;0.60;;
12567;SDS011;6349;50.904;6.136;2023-08-01T01:54:52;0.63;;;0.40;;
12567;SDS011;6349;50.904;6.136;2023-08-01T01:56:53;0.65;;;0.60;;
12567;SDS011;6349;50.904;6.136;2023-08-01T01:58:56;0.85;;;0.50;;
12567;SDS011;6349;50.904;6.136;2023-08-01T02:00:57;0.70;;;0.70;;
12567;SDS011;6349;50.904;6.136;2023-08-01T02:02:57;0.75;;;0.73;;
12567;SDS011;6349;50.904;6.136;2023-08-01T02:04:58;1.10;;;1.00;;
12567;SDS011;6349;50.904;6.136;2023-08-01T02:06:58;0.68;;;0.68;;
12567;SDS011;6349;50.904;6.136;2023-08-01T02:09:00;1.85;;;0.90;;
12567;SDS011;6349;50.904;6.136;2023-08-01T02:11:00;1.60;;;0.88;;
12567;SDS011;6349;50.904;6.136;2023-08-01T02:13:01;0.95;;;0.93;;
12567;SDS011;6349;50.904;6.136;2023-08-01T02:15:02;2.45;;;1.05;;
12567;SDS011;6349;50.904;6.136;2023-08-01T02:17:03;1.40;;;1.20;;
12567;SDS011;6349;50.904;6.136;2023-08-01T02:19:03;1.00;;;1.00;;
12567;SDS011;6349;50.904;6.136;2023-08-01T02:21:06;1.17;;;1.05;;
12567;SDS011;6349;50.904;6.136;2023-08-01T02:23:07;3.05;;;1.23;;
12567;SDS011;6349;50.904;6.136;2023-08-01T02:25:08;2.45;;;1.30;;
12567;SDS011;6349;50.904;6.136;2023-08-01T02:27:08;1.73;;;1.45;;
12567;SDS011;6349;50.904;6.136;2023-08-01T02:29:09;1.33;;;1.23;;
12567;SDS011;6349;50.904;6.136;2023-08-01T02:31:10;1.50;;;1.40;;
12567;SDS011;6349;50.904;6.136;2023-08-01T02:33:11;1.35;;;1.25;;
12567;SDS011;6349;50.904;6.136;2023-08-01T02:35:11;2.83;;;1.63;;
12567;SDS011;6349;50.904;6.136;2023-08-01T02:37:12;3.10;;;1.90;;
12567;SDS011;6349;50.904;6.136;2023-08-01T02:39:13;1.98;;;1.85;;
12567;SDS011;6349;50.904;6.136;2023-08-01T02:41:13;2.20;;;1.88;;
12567;SDS011;6349;50.904;6.136;2023-08-01T02:43:14;2.28;;;1.95;;
12567;SDS011;6349;50.904;6.136;2023-08-01T02:45:15;4.07;;;2.20;;
12567;SDS011;6349;50.904;6.136;2023-08-01T02:47:15;1.70;;;1.58;;
12567;SDS011;6349;50.904;6.136;2023-08-01T02:49:16;3.75;;;2.10;;
12567;SDS011;6349;50.904;6.136;2023-08-01T02:51:16;3.35;;;2.15;;
12567;SDS011;6349;50.904;6.136;2023-08-01T02:53:17;3.03;;;2.00;;
12567;SDS011;6349;50.904;6.136;2023-08-01T02:55:17;4.93;;;2.50;;
12567;SDS011;6349;50.904;6.136;2023-08-01T02:57:18;2.40;;;2.20;;
12567;SDS011;6349;50.904;6.136;2023-08-01T02:59:19;2.63;;;2.10;;
12567;SDS011;6349;50.904;6.136;2023-08-01T03:01:19;3.40;;;2.47;;
12567;SDS011;6349;50.904;6.136;2023-08-01T03:03:20;2.75;;;2.40;;
12567;SDS011;6349;50.904;6.136;2023-08-01T03:05:21;3.08;;;2.15;;
12567;SDS011;6349;50.904;6.136;2023-08-01T03:07:22;6.10;;;2.63;;
12567;SDS011;6349;50.904;6.136;2023-08-01T03:09:22;2.58;;;2.28;;
12567;SDS011;6349;50.904;6.136;2023-08-01T03:11:23;3.10;;;2.55;;
12567;SDS011;6349;50.904;6.136;2023-08-01T03:13:24;3.70;;;2.65;;
12567;SDS011;6349;50.904;6.136;2023-08-01T03:15:24;3.10;;;2.47;;
12567;SDS011;6349;50.904;6.136;2023-08-01T03:17:25;4.22;;;2.67;;
12567;SDS011;6349;50.904;6.136;2023-08-01T03:19:25;3.67;;;2.85;;
12567;SDS011;6349;50.904;6.136;2023-08-01T03:21:28;3.38;;;2.70;;
12567;SDS011;6349;50.904;6.136;2023-08-01T03:23:29;3.33;;;2.67;;
12567;SDS011;6349;50.904;6.136;2023-08-01T03:25:30;3.95;;;2.78;;
12567;SDS011;6349;50.904;6.136;2023-08-01T03:27:31;4.03;;;2.80;;
12567;SDS011;6349;50.904;6.136;2023-08-01T03:29:31;4.20;;;2.80;;
12567;SDS011;6349;50.904;6.136;2023-08-01T03:31:32;4.90;;;2.80;;
12567;SDS011;6349;50.904;6.136;2023-08-01T03:33:33;6.10;;;2.90;;
12567;SDS011;6349;50.904;6.136;2023-08-01T03:35:34;4.40;;;2.60;;
12567;SDS011;6349;50.904;6.136;2023-08-01T03:37:34;4.47;;;2.83;;
12567;SDS011;6349;50.904;6.136;2023-08-01T03:39:35;5.28;;;2.83;;
12567;SDS011;6349;50.904;6.136;2023-08-01T03:41:36;3.50;;;2.92;;
12567;SDS011;6349;50.904;6.136;2023-08-01T03:43:39;3.78;;;2.70;;
12567;SDS011;6349;50.904;6.136;2023-08-01T03:45:40;6.22;;;2.85;;
12567;SDS011;6349;50.904;6.136;2023-08-01T03:47:41;3.88;;;2.95;;
12567;SDS011;6349;50.904;6.136;2023-08-01T03:49:41;4.00;;;2.63;;
12567;SDS011;6349;50.904;6.136;2023-08-01T03:51:42;4.53;;;3.53;;
12567;SDS011;6349;50.904;6.136;2023-08-01T03:53:43;3.92;;;3.00;;
12567;SDS011;6349;50.904;6.136;2023-08-01T03:55:46;5.25;;;2.83;;
12567;SDS011;6349;50.904;6.136;2023-08-01T03:57:48;4.20;;;3.00;;
12567;SDS011;6349;50.904;6.136;2023-08-01T03:59:49;4.78;;;2.80;;
12567;SDS011;6349;50.904;6.136;2023-08-01T04:01:49;6.15;;;3.00;;
12567;SDS011;6349;50.904;6.136;2023-08-01T04:03:53;3.75;;;2.80;;
12567;SDS011;6349;50.904;6.136;2023-08-01T04:05:53;3.78;;;3.00;;
12567;SDS011;6349;50.904;6.136;2023-08-01T04:07:54;2.90;;;2.60;;
12567;SDS011;6349;50.904;6.136;2023-08-01T04:09:55;4.43;;;2.90;;
12567;SDS011;6349;50.904;6.136;2023-08-01T04:11:55;4.82;;;2.78;;
12567;SDS011;6349;50.904;6.136;2023-08-01T04:13:56;4.70;;;2.95;;
12567;SDS011;6349;50.904;6.136;2023-08-01T04:15:57;3.03;;;2.65;;
12567;SDS011;6349;50.904;6.136;2023-08-01T04:17:57;4.10;;;3.00;;
12567;SDS011;6349;50.904;6.136;2023-08-01T04:19:58;4.10;;;3.30;;
12567;SDS011;6349;50.904;6.136;2023-08-01T04:21:59;5.50;;;3.03;;
12567;SDS011;6349;50.904;6.136;2023-08-01T04:23:59;3.40;;;3.00;;
12567;SDS011;6349;50.904;6.136;2023-08-01T04:26:00;3.92;;;3.10;;
12567;SDS011;6349;50.904;6.136;2023-08-01T04:28:00;4.82;;;3.00;;
12567;SDS011;6349;50.904;6.136;2023-08-01T04:30:01;3.72;;;2.78;;
12567;SDS011;6349;50.904;6.136;2023-08-01T04:32:02;4.80;;;2.90;;
12567;SDS011;6349;50.904;6.136;2023-08-01T04:34:02;5.20;;;3.03;;
12567;SDS011;6349;50.904;6.136;2023-08-01T04:36:03;3.08;;;2.78;;
12567;SDS011;6349;50.904;6.136;2023-08-01T04:38:04;3.45;;;2.60;;
12567;SDS011;6349;50.904;6.136;2023-08-01T04:40:05;3.03;;;2.50;;
12567;SDS011;6349;50.904;6.136;2023-08-01T04:42:06;4.68;;;3.10;;
12567;SDS011;6349;50.904;6.136;2023-08-01T04:44:07;3.72;;;2.72;;
12567;SDS011;6349;50.904;6.136;2023-08-01T04:46:07;3.92;;;2.60;;
12567;SDS011;6349;50.904;6.136;2023-08-01T04:48:08;3.13;;;2.78;;
12567;SDS011;6349;50.904;6.136;2023-08-01T04:50:08;4.55;;;2.92;;
12567;SDS011;6349;50.904;6.136;2023-08-01T04:52:09;5.28;;;3.20;;
12567;SDS011;6349;50.904;6.136;2023-08-01T04:54:10;4.32;;;2.88;;
12567;SDS011;6349;50.904;6.136;2023-08-01T04:56:11;3.97;;;2.97;;
12567;SDS011;6349;50.904;6.136;2023-08-01T04:58:11;4.28;;;2.65;;
12567;SDS011;6349;50.904;6.136;2023-08-01T05:00:12;4.68;;;3.38;;
12567;SDS011;6349;50.904;6.136;2023-08-01T05:02:13;6.88;;;2.95;;
12567;SDS011;6349;50.904;6.136;2023-08-01T05:04:13;4.60;;;3.28;;
12567;SDS011;6349;50.904;6.136;2023-08-01T05:06:14;3.72;;;2.92;;
12567;SDS011;6349;50.904;6.136;2023-08-01T05:08:15;4.22;;;2.80;;
12567;SDS011;6349;50.904;6.136;2023-08-01T05:10:16;3.30;;;3.00;;
12567;SDS011;6349;50.904;6.136;2023-08-01T05:12:16;3.58;;;2.90;;
12567;SDS011;6349;50.904;6.136;2023-08-01T05:14:17;3.60;;;2.88;;
12567;SDS011;6349;50.904;6.136;2023-08-01T05:16:17;4.28;;;3.08;;
12567;SDS011;6349;50.904;6.136;2023-08-01T05:18:18;5.43;;;3.13;;
12567;SDS011;6349;50.904;6.136;2023-08-01T05:20:19;3.80;;;3.10;;
12567;SDS011;6349;50.904;6.136;2023-08-01T05:22:19;4.43;;;3.08;;
12567;SDS011;6349;50.904;6.136;2023-08-01T05:24:20;5.10;;;3.08;;
12567;SDS011;6349;50.904;6.136;2023-08-01T05:26:21;4.13;;;3.20;;
12567;SDS011;6349;50.904;6.136;2023-08-01T05:28:21;5.05;;;3.15;;
12567;SDS011;6349;50.904;6.136;2023-08-01T05:30:22;6.53;;;3.33;;
12567;SDS011;6349;50.904;6.136;2023-08-01T05:32:23;4.32;;;3.00;;
12567;SDS011;6349;50.904;6.136;2023-08-01T05:34:24;6.03;;;3.38;;
12567;SDS011;6349;50.904;6.136;2023-08-01T05:36:25;4.50;;;2.92;;
12567;SDS011;6349;50.904;6.136;2023-08-01T05:38:25;4.65;;;2.90;;
12567;SDS011;6349;50.904;6.136;2023-08-01T05:40:26;3.45;;;2.88;;
12567;SDS011;6349;50.904;6.136;2023-08-01T05:42:26;5.35;;;3.28;;
12567;SDS011;6349;50.904;6.136;2023-08-01T05:44:27;5.90;;;3.20;;
12567;SDS011;6349;50.904;6.136;2023-08-01T05:46:28;5.25;;;3.30;;
12567;SDS011;6349;50.904;6.136;2023-08-01T05:48:28;5.30;;;3.10;;
12567;SDS011;6349;50.904;6.136;2023-08-01T05:50:29;5.63;;;3.53;;
12567;SDS011;6349;50.904;6.136;2023-08-01T05:52:30;4.72;;;3.30;;
12567;SDS011;6349;50.904;6.136;2023-08-01T05:54:30;6.40;;;3.58;;
12567;SDS011;6349;50.904;6.136;2023-08-01T05:56:31;5.30;;;3.13;;
12567;SDS011;6349;50.904;6.136;2023-08-01T05:58:31;4.85;;;3.47;;
12567;SDS011;6349;50.904;6.136;2023-08-01T06:00:32;4.68;;;3.40;;
12567;SDS011;6349;50.904;6.136;2023-08-01T06:02:33;5.80;;;3.67;;
12567;SDS011;6349;50.904;6.136;2023-08-01T06:04:33;4.32;;;3.30;;
12567;SDS011;6349;50.904;6.136;2023-08-01T06:06:34;5.25;;;3.83;;
12567;SDS011;6349;50.904;6.136;2023-08-01T06:08:35;6.22;;;3.90;;
12567;SDS011;6349;50.904;6.136;2023-08-01T06:10:35;7.63;;;3.80;;
12567;SDS011;6349;50.904;6.136;2023-08-01T06:12:36;8.40;;;3.85;;
12567;SDS011;6349;50.904;6.136;2023-08-01T06:14:37;6.60;;;4.32;;
12567;SDS011;6349;50.904;6.136;2023-08-01T06:16:38;4.30;;;3.88;;
12567;SDS011;6349;50.904;6.136;2023-08-01T06:18:38;5.38;;;4.10;;
12567;SDS011;6349;50.904;6.136;2023-08-01T06:20:39;7.32;;;4.40;;
12567;SDS011;6349;50.904;6.136;2023-08-01T06:22:41;7.75;;;4.40;;
12567;SDS011;6349;50.904;6.136;2023-08-01T06:24:42;6.97;;;4.15;;
12567;SDS011;6349;50.904;6.136;2023-08-01T06:26:43;9.57;;;4.50;;
12567;SDS011;6349;50.904;6.136;2023-08-01T06:28:43;6.32;;;3.85;;
12567;SDS011;6349;50.904;6.136;2023-08-01T06:30:45;5.30;;;3.90;;
12567;SDS011;6349;50.904;6.136;2023-08-01T06:32:46;5.45;;;3.53;;
12567;SDS011;6349;50.904;6.136;2023-08-01T06:34:46;7.18;;;4.00;;
12567;SDS011;6349;50.904;6.136;2023-08-01T06:36:47;6.15;;;3.55;;
12567;SDS011;6349;50.904;6.136;2023-08-01T06:38:48;4.55;;;3.40;;
12567;SDS011;6349;50.904;6.136;2023-08-01T06:40:48;4.85;;;3.40;;
12567;SDS011;6349;50.904;6.136;2023-08-01T06:42:49;5.75;;;3.83;;
12567;SDS011;6349;50.904;6.136;2023-08-01T06:44:50;4.10;;;3.60;;
12567;SDS011;6349;50.904;6.136;2023-08-01T06:46:50;5.38;;;3.42;;
12567;SDS011;6349;50.904;6.136;2023-08-01T06:48:51;5.07;;;3.50;;
12567;SDS011;6349;50.904;6.136;2023-08-01T06:50:51;5.45;;;3.60;;
12567;SDS011;6349;50.904;6.136;2023-08-01T06:52:52;5.78;;;3.70;;
12567;SDS011;6349;50.904;6.136;2023-08-01T06:54:53;5.72;;;4.05;;
12567;SDS011;6349;50.904;6.136;2023-08-01T06:56:53;8.88;;;4.22;;
12567;SDS011;6349;50.904;6.136;2023-08-01T06:58:54;5.72;;;3.92;;
12567;SDS011;6349;50.904;6.136;2023-08-01T07:00:54;6.50;;;4.30;;
12567;SDS011;6349;50.904;6.136;2023-08-01T07:02:55;6.50;;;4.18;;
12567;SDS011;6349;50.904;6.136;2023-08-01T07:04:56;7.90;;;4.97;;
12567;SDS011;6349;50.904;6.136;2023-08-01T07:06:57;5.57;;;4.97;;
12567;SDS011;6349;50.904;6.136;2023-08-01T07:08:57;6.60;;;4.53;;
12567;SDS011;6349;50.904;6.136;2023-08-01T07:10:58;6.82;;;5.20;;
12567;SDS011;6349;50.904;6.136;2023-08-01T07:12:59;5.93;;;4.65;;
12567;SDS011;6349;50.904;6.136;2023-08-01T07:15:03;6.93;;;4.53;;
12567;SDS011;6349;50.904;6.136;2023-08-01T07:17:04;6.68;;;4.97;;
12567;SDS011;6349;50.904;6.136;2023-08-01T07:19:05;8.80;;;4.88;;
12567;SDS011;6349;50.904;6.136;2023-08-01T07:21:06;8.27;;;4.90;;
12567;SDS011;6349;50.904;6.136;2023-08-01T07:23:06;8.07;;;4.88;;
12567;SDS011;6349;50.904;6.136;2023-08-01T07:25:07;5.90;;;4.70;;
12567;SDS011;6349;50.904;6.136;2023-08-01T07:27:08;7.68;;;4.78;;
12567;SDS011;6349;50.904;6.136;2023-08-01T07:29:08;6.40;;;4.70;;
12567;SDS011;6349;50.904;6.136;2023-08-01T07:31:10;6.35;;;4.60;;
12567;SDS011;6349;50.904;6.136;2023-08-01T07:33:11;8.32;;;4.90;;
12567;SDS011;6349;50.904;6.136;2023-08-01T07:35:12;7.00;;;4.57;;
12567;SDS011;6349;50.904;6.136;2023-08-01T07:37:13;7.00;;;4.45;;
12567;SDS011;6349;50.904;6.136;2023-08-01T07:39:13;9.18;;;4.70;;
12567;SDS011;6349;50.904;6.136;2023-08-01T07:41:14;7.53;;;4.60;;
12567;SDS011;6349;50.904;6.136;2023-08-01T07:43:15;8.63;;;4.13;;
12567;SDS011;6349;50.904;6.136;2023-08-01T07:45:17;6.18;;;4.65;;
12567;SDS011;6349;50.904;6.136;2023-08-01T07:47:19;5.65;;;3.90;;
12567;SDS011;6349;50.904;6.136;2023-08-01T07:49:19;8.38;;;4.60;;
12567;SDS011;6349;50.904;6.136;2023-08-01T07:51:20;7.03;;;4.20;;
12567;SDS011;6349;50.904;6.136;2023-08-01T07:53:20;6.53;;;4.20;;
12567;SDS011;6349;50.904;6.136;2023-08-01T07:55:21;6.72;;;3.78;;
12567;SDS011;6349;50.904;6.136;2023-08-01T07:57:22;5.50;;;4.38;;
12567;SDS011;6349;50.904;6.136;2023-08-01T07:59:22;6.57;;;4.00;;
12567;SDS011;6349;50.904;6.136;2023-08-01T08:01:23;4.22;;;3.58;;
12567;SDS011;6349;50.904;6.136;2023-08-01T08:03:23;5.22;;;3.67;;
12567;SDS011;6349;50.904;6.136;2023-08-01T08:05:24;7.82;;;3.90;;
12567;SDS011;6349;50.904;6.136;2023-08-01T08:07:25;6.55;;;3.80;;
12567;SDS011;6349;50.904;6.136;2023-08-01T08:09:25;4.88;;;3.75;;
12567;SDS011;6349;50.904;6.136;2023-08-01T08:11:27;6.50;;;3.80;;
12567;SDS011;6349;50.904;6.136;2023-08-01T08:13:27;5.93;;;3.85;;
12567;SDS011;6349;50.904;6.136;2023-08-01T08:15:28;7.18;;;3.75;;
12567;SDS011;6349;50.904;6.136;2023-08-01T08:17:33;7.03;;;3.67;;
12567;SDS011;6349;50.904;6.136;2023-08-01T08:19:34;6.50;;;3.55;;
12567;SDS011;6349;50.904;6.136;2023-08-01T08:21:34;5.07;;;3.67;;
12567;SDS011;6349;50.904;6.136;2023-08-01T08:23:35;4.85;;;3.45;;
12567;SDS011;6349;50.904;6.136;2023-08-01T08:25:35;5.57;;;3.72;;
12567;SDS011;6349;50.904;6.136;2023-08-01T08:27:36;5.10;;;3.92;;
12567;SDS011;6349;50.904;6.136;2023-08-01T08:29:37;4.72;;;4.00;;
12567;SDS011;6349;50.904;6.136;2023-08-01T08:31:38;6.10;;;3.83;;
12567;SDS011;6349;50.904;6.136;2023-08-01T08:33:38;7.63;;;3.40;;
12567;SDS011;6349;50.904;6.136;2023-08-01T08:35:39;5.40;;;3.38;;
12567;SDS011;6349;50.904;6.136;2023-08-01T08:37:40;6.45;;;3.63;;
12567;SDS011;6349;50.904;6.136;2023-08-01T08:39:40;7.63;;;3.15;;
12567;SDS011;6349;50.904;6.136;2023-08-01T08:41:48;5.50;;;3.58;;
12567;SDS011;6349;50.904;6.136;2023-08-01T08:43:50;4.80;;;3.15;;
12567;SDS011;6349;50.904;6.136;2023-08-01T08:45:56;7.15;;;3.45;;
12567;SDS011;6349;50.904;6.136;2023-08-01T08:47:59;5.65;;;3.17;;
12567;SDS011;6349;50.904;6.136;2023-08-01T08:50:08;7.03;;;3.50;;
12567;SDS011;6349;50.904;6.136;2023-08-01T08:52:10;5.38;;;3.28;;
12567;SDS011;6349;50.904;6.136;2023-08-01T08:54:11;4.53;;;3.58;;
12567;SDS011;6349;50.904;6.136;2023-08-01T08:56:14;5.20;;;3.20;;
12567;SDS011;6349;50.904;6.136;2023-08-01T08:58:15;4.30;;;3.35;;
12567;SDS011;6349;50.904;6.136;2023-08-01T09:00:17;6.60;;;3.38;;
12567;SDS011;6349;50.904;6.136;2023-08-01T09:02:19;5.75;;;3.30;;
12567;SDS011;6349;50.904;6.136;2023-08-01T09:04:20;7.13;;;3.90;;
12567;SDS011;6349;50.904;6.136;2023-08-01T09:06:22;5.93;;;3.38;;
12567;SDS011;6349;50.904;6.136;2023-08-01T09:08:28;5.35;;;3.75;;
12567;SDS011;6349;50.904;6.136;2023-08-01T09:10:32;4.85;;;3.47;;
12567;SDS011;6349;50.904;6.136;2023-08-01T09:12:35;7.85;;;3.80;;
12567;SDS011;6349;50.904;6.136;2023-08-01T09:14:36;4.85;;;3.83;;
12567;SDS011;6349;50.904;6.136;2023-08-01T09:16:36;5.65;;;3.50;;
12567;SDS011;6349;50.904;6.136;2023-08-01T09:18:47;5.22;;;3.22;;
12567;SDS011;6349;50.904;6.136;2023-08-01T09:20:51;5.22;;;3.78;;
12567;SDS011;6349;50.904;6.136;2023-08-01T09:22:52;4.93;;;3.75;;
12567;SDS011;6349;50.904;6.136;2023-08-01T09:24:53;4.78;;;3.65;;
12567;SDS011;6349;50.904;6.136;2023-08-01T09:27:01;5.43;;;3.42;;
12567;SDS011;6349;50.904;6.136;2023-08-01T09:29:04;4.28;;;3.80;;
12567;SDS011;6349;50.904;6.136;2023-08-01T09:31:05;5.03;;;3.10;;
12567;SDS011;6349;50.904;6.136;2023-08-01T09:33:05;6.13;;;3.38;;
12567;SDS011;6349;50.904;6.136;2023-08-01T09:35:06;7.10;;;3.40;;
12567;SDS011;6349;50.904;6.136;2023-08-01T09:37:07;6.30;;;3.40;;
12567;SDS011;6349;50.904;6.136;2023-08-01T09:39:07;4.93;;;3.22;;
12567;SDS011;6349;50.904;6.136;2023-08-01T09:41:16;4.72;;;3.38;;
12567;SDS011;6349;50.904;6.136;2023-08-01T09:43:19;6.20;;;3.10;;
12567;SDS011;6349;50.904;6.136;2023-08-01T09:45:20;4.10;;;2.88;;
12567;SDS011;6349;50.904;6.136;2023-08-01T09:47:21;5.63;;;3.08;;
12567;SDS011;6349;50.904;6.136;2023-08-01T09:49:21;3.45;;;2.72;;
12567;SDS011;6349;50.904;6.136;2023-08-01T09:51:22;4.10;;;3.00;;
12567;SDS011;6349;50.904;6.136;2023-08-01T09:53:22;6.82;;;3.05;;
12567;SDS011;6349;50.904;6.136;2023-08-01T09:57:32;4.75;;;2.85;;
12567;SDS011;6349;50.904;6.136;2023-08-01T09:59:37;5.63;;;3.00;;
12567;SDS011;6349;50.904;6.136;2023-08-01T10:01:38;4.53;;;2.72;;
12567;SDS011;6349;50.904;6.136;2023-08-01T10:03:41;5.22;;;2.72;;
12567;SDS011;6349;50.904;6.136;2023-08-01T10:05:46;5.82;;;2.67;;
12567;SDS011;6349;50.904;6.136;2023-08-01T10:07:47;4.03;;;2.45;;
12567;SDS011;6349;50.904;6.136;2023-08-01T10:09:49;6.20;;;2.58;;
12567;SDS011;6349;50.904;6.136;2023-08-01T10:11:50;3.25;;;2.47;;
12567;SDS011;6349;50.904;6.136;2023-08-01T10:13:51;4.35;;;2.65;;
12567;SDS011;6349;50.904;6.136;2023-08-01T10:15:52;4.80;;;2.75;;
12567;SDS011;6349;50.904;6.136;2023-08-01T10:17:52;6.82;;;2.70;;
12567;SDS011;6349;50.904;6.136;2023-08-01T10:19:53;4.78;;;2.80;;
12567;SDS011;6349;50.904;6.136;2023-08-01T10:21:56;4.57;;;2.65;;
12567;SDS011;6349;50.904;6.136;2023-08-01T10:23:57;3.75;;;2.60;;
12567;SDS011;6349;50.904;6.136;2023-08-01T10:26:00;3.42;;;2.70;;
12567;SDS011;6349;50.904;6.136;2023-08-01T10:28:04;4.43;;;2.65;;
12567;SDS011;6349;50.904;6.136;2023-08-01T10:30:05;3.90;;;2.60;;
12567;SDS011;6349;50.904;6.136;2023-08-01T10:32:07;5.15;;;2.45;;
12567;SDS011;6349;50.904;6.136;2023-08-01T10:34:14;3.42;;;2.35;;
12567;SDS011;6349;50.904;6.136;2023-08-01T10:36:18;3.50;;;2.50;;
12567;SDS011;6349;50.904;6.136;2023-08-01T10:38:20;5.10;;;2.63;;
12567;SDS011;6349;50.904;6.136;2023-08-01T10:40:21;3.38;;;2.60;;
12567;SDS011;6349;50.904;6.136;2023-08-01T10:42:43;3.38;;;2.53;;
12567;SDS011;6349;50.904;6.136;2023-08-01T10:44:45;3.22;;;2.53;;
12567;SDS011;6349;50.904;6.136;2023-08-01T10:48:51;5.50;;;2.90;;
12567;SDS011;6349;50.904;6.136;2023-08-01T10:50:55;2.85;;;2.30;;
12567;SDS011;6349;50.904;6.136;2023-08-01T10:53:03;4.20;;;2.42;;
12567;SDS011;6349;50.904;6.136;2023-08-01T10:55:05;5.00;;;2.67;;
12567;SDS011;6349;50.904;6.136;2023-08-01T10:57:06;3.28;;;2.03;;
12567;SDS011;6349;50.904;6.136;2023-08-01T10:59:08;4.30;;;2.75;;
12567;SDS011;6349;50.904;6.136;2023-08-01T11:01:09;4.88;;;2.22;;
12567;SDS011;6349;50.904;6.136;2023-08-01T11:03:10;4.40;;;2.20;;
12567;SDS011;6349;50.904;6.136;2023-08-01T11:05:11;4.10;;;2.22;;
12567;SDS011;6349;50.904;6.136;2023-08-01T11:07:11;5.50;;;2.00;;
12567;SDS011;6349;50.904;6.136;2023-08-01T11:09:21;4.28;;;2.30;;
12567;SDS011;6349;50.904;6.136;2023-08-01T11:11:23;3.22;;;2.03;;
12567;SDS011;6349;50.904;6.136;2023-08-01T11:13:24;2.70;;;2.20;;
12567;SDS011;6349;50.904;6.136;2023-08-01T11:15:25;5.22;;;2.33;;
12567;SDS011;6349;50.904;6.136;2023-08-01T11:17:26;4.40;;;2.40;;
12567;SDS011;6349;50.904;6.136;2023-08-01T11:19:27;6.85;;;2.35;;
12567;SDS011;6349;50.904;6.136;2023-08-01T11:21:29;6.80;;;2.50;;
12567;SDS011;6349;50.904;6.136;2023-08-01T11:23:29;3.97;;;2.20;;
12567;SDS011;6349;50.904;6.136;2023-08-01T11:25:40;6.47;;;2.38;;
12567;SDS011;6349;50.904;6.136;2023-08-01T11:27:43;4.60;;;2.30;;
12567;SDS011;6349;50.904;6.136;2023-08-01T11:29:43;4.18;;;2.30;;
12567;SDS011;6349;50.904;6.136;2023-08-01T11:31:53;2.53;;;1.90;;
12567;SDS011;6349;50.904;6.136;2023-08-01T11:33:56;3.60;;;2.00;;
12567;SDS011;6349;50.904;6.136;2023-08-01T11:35:57;3.08;;;1.70;;
12567;SDS011;6349;50.904;6.136;2023-08-01T11:37:59;3.95;;;1.80;;
12567;SDS011;6349;50.904;6.136;2023-08-01T11:40:00;4.85;;;2.10;;
12567;SDS011;6349;50.904;6.136;2023-08-01T11:42:01;5.22;;;2.20;;
12567;SDS011;6349;50.904;6.136;2023-08-01T11:44:02;5.32;;;2.35;;
12567;SDS011;6349;50.904;6.136;2023-08-01T11:46:04;4.53;;;2.10;;
12567;SDS011;6349;50.904;6.136;2023-08-01T11:48:04;9.38;;;2.45;;
12567;SDS011;6349;50.904;6.136;2023-08-01T11:50:05;4.28;;;2.00;;
12567;SDS011;6349;50.904;6.136;2023-08-01T11:52:06;3.97;;;2.15;;
12567;SDS011;6349;50.904;6.136;2023-08-01T11:54:08;3.58;;;2.10;;
12567;SDS011;6349;50.904;6.136;2023-08-01T11:56:19;3.92;;;2.15;;
12567;SDS011;6349;50.904;6.136;2023-08-01T11:58:33;4.47;;;2.13;;
12567;SDS011;6349;50.904;6.136;2023-08-01T12:00:35;5.10;;;2.20;;
12567;SDS011;6349;50.904;6.136;2023-08-01T12:02:35;3.33;;;1.70;;
12567;SDS011;6349;50.904;6.136;2023-08-01T12:04:36;4.32;;;2.28;;
12567;SDS011;6349;50.904;6.136;2023-08-01T12:06:39;3.20;;;1.83;;
12567;SDS011;6349;50.904;6.136;2023-08-01T12:08:45;2.72;;;1.75;;
12567;SDS011;6349;50.904;6.136;2023-08-01T12:10:46;4.78;;;1.90;;
12567;SDS011;6349;50.904;6.136;2023-08-01T12:12:47;2.10;;;1.60;;
12567;SDS011;6349;50.904;6.136;2023-08-01T12:14:48;5.43;;;1.90;;
12567;SDS011;6349;50.904;6.136;2023-08-01T12:16:49;4.25;;;1.98;;
12567;SDS011;6349;50.904;6.136;2023-08-01T12:18:49;3.38;;;1.90;;
12567;SDS011;6349;50.904;6.136;2023-08-01T12:20:50;3.10;;;1.60;;
12567;SDS011;6349;50.904;6.136;2023-08-01T12:22:51;2.58;;;1.85;;
12567;SDS011;6349;50.904;6.136;2023-08-01T12:24:52;3.13;;;1.70;;
12567;SDS011;6349;50.904;6.136;2023-08-01T12:26:52;3.55;;;2.25;;